createdAt,value
2023-05-19T00:02:21.047Z,7.40
2023-05-19T00:05:08.472Z,7.50
2023-05-19T00:08:00.735Z,7.50
2023-05-19T00:10:47.397Z,7.70
2023-05-19T00:13:34.150Z,7.70
2023-05-19T00:16:21.946Z,7.90
2023-05-19T00:19:10.613Z,7.90
2023-05-19T00:21:56.741Z,7.90
2023-05-19T00:24:42.988Z,7.90
2023-05-19T00:27:29.139Z,7.90
2023-05-19T00:30:15.842Z,7.80
2023-05-19T00:33:02.378Z,7.80
2023-05-19T00:35:48.559Z,7.90
2023-05-19T00:38:36.813Z,7.80
2023-05-19T00:41:23.080Z,7.70
2023-05-19T00:44:08.977Z,7.70
2023-05-19T00:46:55.243Z,7.60
2023-05-19T00:49:41.333Z,7.50
2023-05-19T00:52:28.421Z,7.50
2023-05-19T00:55:14.682Z,7.50
2023-05-19T00:58:01.689Z,7.50
2023-05-19T01:00:48.319Z,7.40
2023-05-19T01:03:36.116Z,7.40
2023-05-19T01:06:22.343Z,7.30
2023-05-19T01:09:09.056Z,7.30
2023-05-19T01:11:54.915Z,7.30
2023-05-19T01:14:41.491Z,7.30
2023-05-19T01:17:38.313Z,7.30
2023-05-19T01:20:53.630Z,7.20
2023-05-19T01:23:57.555Z,7.30
2023-05-19T01:27:43.658Z,7.30
2023-05-19T01:30:43.331Z,7.30
2023-05-19T01:33:31.306Z,7.30
2023-05-19T01:36:17.966Z,7.20
2023-05-19T01:39:05.232Z,7.10
2023-05-19T01:41:52.409Z,7.10
2023-05-19T01:44:39.057Z,7.00
2023-05-19T01:47:25.483Z,7.00
2023-05-19T01:50:11.414Z,7.00
2023-05-19T01:52:57.349Z,7.00
2023-05-19T01:55:50.269Z,6.90
2023-05-19T01:59:00.512Z,6.90
2023-05-19T02:01:54.629Z,6.80
2023-05-19T02:04:51.733Z,6.80
2023-05-19T02:08:04.188Z,6.70
2023-05-19T02:10:57.912Z,6.70
2023-05-19T02:13:45.755Z,6.60
2023-05-19T02:16:33.714Z,6.60
2023-05-19T02:19:30.178Z,6.50
2023-05-19T02:22:16.065Z,6.60
2023-05-19T02:25:02.193Z,6.50
2023-05-19T02:27:49.177Z,6.50
2023-05-19T02:30:34.996Z,6.50
2023-05-19T02:33:22.746Z,6.50
2023-05-19T02:36:09.091Z,6.50
2023-05-19T02:38:54.984Z,6.50
2023-05-19T02:41:41.004Z,6.50
2023-05-19T02:44:27.723Z,6.40
2023-05-19T02:47:14.079Z,6.50
2023-05-19T02:50:00.026Z,6.40
2023-05-19T02:52:46.078Z,6.40
2023-05-19T02:55:32.046Z,6.50
2023-05-19T02:58:18.706Z,6.40
2023-05-19T03:01:04.351Z,6.40
2023-05-19T03:03:50.328Z,6.50
2023-05-19T03:06:36.401Z,6.50
2023-05-19T03:09:22.344Z,6.50
2023-05-19T03:12:08.567Z,6.60
2023-05-19T03:14:54.140Z,6.70
2023-05-19T03:17:40.809Z,6.70
2023-05-19T03:20:26.696Z,6.80
2023-05-19T03:23:12.542Z,6.80
2023-05-19T03:25:58.420Z,6.80
2023-05-19T03:28:44.675Z,6.90
2023-05-19T03:31:30.642Z,6.90
2023-05-19T03:34:17.829Z,7.00
2023-05-19T03:37:03.983Z,7.10
2023-05-19T03:39:50.042Z,7.30
2023-05-19T03:42:36.211Z,7.40
2023-05-19T03:45:22.040Z,7.50
2023-05-19T03:48:09.960Z,7.50
2023-05-19T03:51:30.023Z,7.50
2023-05-19T03:54:22.899Z,7.50
2023-05-19T03:57:11.167Z,7.60
2023-05-19T03:59:56.940Z,7.60
2023-05-19T04:02:43.012Z,7.70
2023-05-19T04:05:29.119Z,7.70
2023-05-19T04:08:14.769Z,7.90
2023-05-19T04:11:00.411Z,8.10
2023-05-19T04:13:46.149Z,8.30
2023-05-19T04:16:32.698Z,8.40
2023-05-19T04:19:18.805Z,8.70
2023-05-19T04:22:04.707Z,8.90
2023-05-19T04:24:52.259Z,9.10
2023-05-19T04:27:39.016Z,9.30
2023-05-19T04:30:25.296Z,9.60
2023-05-19T04:33:11.748Z,9.80
2023-05-19T04:35:58.416Z,10.00
2023-05-19T04:38:45.942Z,10.20
2023-05-19T04:41:32.088Z,10.40
2023-05-19T04:44:18.467Z,10.50
2023-05-19T04:47:09.084Z,10.50
2023-05-19T04:49:55.696Z,10.30
2023-05-19T04:52:42.555Z,10.20
2023-05-19T04:55:28.665Z,10.20
2023-05-19T04:58:14.446Z,10.20
2023-05-19T05:01:00.556Z,10.30
2023-05-19T05:03:47.783Z,10.20
2023-05-19T05:06:33.825Z,10.20
2023-05-19T05:09:20.015Z,10.30
2023-05-19T05:12:07.870Z,10.30
2023-05-19T05:14:55.075Z,10.30
2023-05-19T05:17:41.328Z,10.40
2023-05-19T05:20:28.093Z,10.40
2023-05-19T05:23:17.013Z,10.40
2023-05-19T05:26:18.692Z,10.50
2023-05-19T05:29:09.243Z,10.50
2023-05-19T05:31:55.503Z,10.60
2023-05-19T05:34:42.544Z,10.60
2023-05-19T05:37:28.531Z,10.80
2023-05-19T05:40:15.109Z,10.90
2023-05-19T05:43:02.379Z,11.00
2023-05-19T05:45:51.785Z,11.00
2023-05-19T05:48:39.764Z,11.10
2023-05-19T05:51:26.624Z,11.10
2023-05-19T05:54:13.865Z,11.20
2023-05-19T05:57:06.431Z,11.30
2023-05-19T05:59:53.709Z,11.50
2023-05-19T06:02:52.597Z,11.70
2023-05-19T06:05:39.363Z,11.90
2023-05-19T06:08:35.262Z,12.10
2023-05-19T06:11:22.529Z,12.30
2023-05-19T06:14:11.818Z,12.50
2023-05-19T06:17:21.167Z,12.60
2023-05-19T06:20:11.320Z,12.80
2023-05-19T06:22:57.628Z,12.90
2023-05-19T06:25:46.231Z,13.10
2023-05-19T06:28:34.025Z,13.30
2023-05-19T06:31:20.322Z,13.30
2023-05-19T06:34:12.506Z,13.10
2023-05-19T06:36:58.296Z,12.90
2023-05-19T06:39:44.431Z,13.00
2023-05-19T06:42:30.410Z,13.10
2023-05-19T06:45:25.491Z,13.30
2023-05-19T06:48:15.163Z,13.10
2023-05-19T06:51:10.635Z,13.20
2023-05-19T06:54:01.763Z,13.50
2023-05-19T06:56:48.568Z,13.60
2023-05-19T06:59:34.644Z,14.00
2023-05-19T07:02:20.611Z,14.20
2023-05-19T07:05:08.238Z,14.30
2023-05-19T07:07:54.588Z,14.50
2023-05-19T07:10:43.577Z,14.50
2023-05-19T07:13:32.987Z,14.60
2023-05-19T07:16:19.185Z,14.70
2023-05-19T07:19:05.179Z,14.90
2023-05-19T07:21:52.377Z,15.00
2023-05-19T07:24:38.149Z,15.20
2023-05-19T07:27:23.753Z,15.50
2023-05-19T07:30:10.137Z,16.00
2023-05-19T07:32:56.329Z,16.80
2023-05-19T07:35:42.128Z,17.50
2023-05-19T07:38:28.880Z,17.80
2023-05-19T07:41:14.955Z,18.00
2023-05-19T07:44:00.768Z,18.10
2023-05-19T07:46:46.653Z,18.40
2023-05-19T07:49:32.262Z,18.60
2023-05-19T07:52:18.302Z,18.80
2023-05-19T07:55:04.337Z,18.80
2023-05-19T07:57:51.035Z,19.10
2023-05-19T08:00:37.628Z,19.30
2023-05-19T08:03:23.798Z,19.40
2023-05-19T08:06:11.357Z,19.60
2023-05-19T08:08:57.288Z,19.90
2023-05-19T08:11:43.325Z,20.00
2023-05-19T08:14:29.133Z,19.90
2023-05-19T08:17:14.867Z,20.10
2023-05-19T08:20:00.565Z,20.10
2023-05-19T08:22:46.453Z,20.10
2023-05-19T08:25:32.682Z,20.00
2023-05-19T08:28:18.357Z,19.80
2023-05-19T08:31:04.373Z,19.90
2023-05-19T08:33:50.105Z,19.90
2023-05-19T08:36:35.887Z,20.10
2023-05-19T08:39:26.568Z,20.30
2023-05-19T08:42:12.519Z,20.60
2023-05-19T08:44:59.370Z,20.70
2023-05-19T08:47:51.283Z,21.00
2023-05-19T08:50:42.623Z,21.20
2023-05-19T08:53:36.819Z,21.00
2023-05-19T08:56:24.867Z,21.00
2023-05-19T08:59:16.242Z,21.20
2023-05-19T09:02:04.056Z,21.60
2023-05-19T09:04:50.156Z,21.70
2023-05-19T09:07:37.964Z,21.60
2023-05-19T09:10:23.973Z,21.50
2023-05-19T09:13:09.857Z,21.60
2023-05-19T09:15:57.695Z,21.20
2023-05-19T09:18:57.704Z,21.20
2023-05-19T09:21:44.602Z,21.60
2023-05-19T09:24:31.527Z,22.00
2023-05-19T09:27:23.522Z,21.80
2023-05-19T09:30:10.397Z,22.10
2023-05-19T09:32:56.069Z,22.40
2023-05-19T09:35:47.446Z,22.60
2023-05-19T09:38:34.926Z,22.60
2023-05-19T09:41:24.268Z,22.70
2023-05-19T09:44:23.420Z,22.50
2023-05-19T09:47:10.492Z,22.60
2023-05-19T09:49:57.409Z,22.40
2023-05-19T09:52:44.804Z,22.70
2023-05-19T09:55:33.007Z,22.60
2023-05-19T09:58:19.958Z,22.70
2023-05-19T10:01:06.097Z,22.40
2023-05-19T10:03:53.683Z,22.40
2023-05-19T10:06:39.978Z,22.70
2023-05-19T10:09:28.051Z,22.60
2023-05-19T10:12:13.780Z,22.40
2023-05-19T10:14:59.904Z,22.20
2023-05-19T10:17:45.978Z,22.90
2023-05-19T10:20:34.707Z,23.10
2023-05-19T10:23:20.563Z,22.70
2023-05-19T10:26:07.670Z,22.70
2023-05-19T10:28:53.793Z,23.20
2023-05-19T10:31:41.016Z,23.30
2023-05-19T10:35:18.005Z,23.30
2023-05-19T10:38:38.541Z,23.70
2023-05-19T10:42:17.521Z,24.00
2023-05-19T10:45:28.930Z,23.80
2023-05-19T10:48:21.613Z,23.30
2023-05-19T10:51:12.174Z,23.40
2023-05-19T10:53:58.947Z,23.60
2023-05-19T10:56:47.986Z,24.00
2023-05-19T10:59:40.053Z,24.70
2023-05-19T11:02:56.301Z,24.50
2023-05-19T11:05:45.598Z,23.70
2023-05-19T11:08:35.210Z,23.30
2023-05-19T11:11:23.358Z,23.20
2023-05-19T11:14:14.969Z,22.70
2023-05-19T11:17:00.966Z,22.10
2023-05-19T11:19:57.600Z,21.80
2023-05-19T11:23:07.252Z,21.70
2023-05-19T11:25:56.223Z,22.90
2023-05-19T11:28:42.633Z,23.40
2023-05-19T11:31:30.793Z,22.80
2023-05-19T11:34:16.893Z,22.10
2023-05-19T11:37:02.956Z,21.90
2023-05-19T11:39:49.536Z,23.00
2023-05-19T11:42:38.378Z,23.90
2023-05-19T11:45:32.290Z,23.90
2023-05-19T11:48:21.947Z,23.90
2023-05-19T11:51:07.865Z,25.00
2023-05-19T11:53:54.766Z,25.20
2023-05-19T11:56:42.007Z,25.80
2023-05-19T11:59:37.218Z,25.20
2023-05-19T12:02:25.427Z,24.90
2023-05-19T12:05:22.835Z,25.60
2023-05-19T12:08:08.833Z,26.80
2023-05-19T12:10:54.558Z,27.90
2023-05-19T12:13:40.775Z,28.50
2023-05-19T12:16:36.274Z,28.20
2023-05-19T12:19:26.146Z,27.40
2023-05-19T12:22:13.768Z,25.60
2023-05-19T12:24:59.839Z,23.60
2023-05-19T12:27:45.972Z,22.30
2023-05-19T12:30:33.059Z,21.50
2023-05-19T12:33:21.962Z,20.80
2023-05-19T12:36:08.672Z,20.30
2023-05-19T12:38:55.571Z,20.20
2023-05-19T12:41:45.661Z,20.30
2023-05-19T12:44:37.167Z,20.60
2023-05-19T12:47:23.838Z,22.10
2023-05-19T12:50:10.883Z,23.70
2023-05-19T12:52:58.500Z,24.60
2023-05-19T12:55:45.844Z,24.80
2023-05-19T12:58:34.335Z,26.00
2023-05-19T13:01:20.343Z,27.00
2023-05-19T13:04:06.801Z,26.40
2023-05-19T13:06:54.125Z,25.10
2023-05-19T13:09:39.788Z,24.30
2023-05-19T13:12:26.215Z,25.50
2023-05-19T13:15:12.615Z,27.60
2023-05-19T13:17:58.886Z,28.60
2023-05-19T13:20:46.487Z,27.80
2023-05-19T13:23:32.872Z,27.50
2023-05-19T13:26:18.538Z,27.60
2023-05-19T13:29:04.665Z,27.00
2023-05-19T13:31:50.869Z,26.10
2023-05-19T13:34:36.467Z,24.90
2023-05-19T13:37:22.971Z,23.70
2023-05-19T13:40:10.081Z,22.90
2023-05-19T13:42:55.929Z,22.30
2023-05-19T13:45:44.179Z,21.70
2023-05-19T13:48:30.425Z,21.50
2023-05-19T13:51:16.326Z,21.40
2023-05-19T13:54:02.782Z,21.40
2023-05-19T13:56:48.791Z,21.20
2023-05-19T13:59:36.061Z,21.20
2023-05-19T14:02:24.882Z,21.00
2023-05-19T14:05:11.015Z,21.00
2023-05-19T14:07:56.943Z,20.70
2023-05-19T14:10:43.378Z,20.50
2023-05-19T14:13:32.665Z,20.10
2023-05-19T14:16:22.870Z,20.00
2023-05-19T14:19:09.125Z,19.90
2023-05-19T14:21:55.069Z,19.70
2023-05-19T14:24:41.671Z,19.40
2023-05-19T14:27:27.362Z,19.50
2023-05-19T14:30:13.638Z,19.40
2023-05-19T14:32:59.503Z,19.30
2023-05-19T14:35:45.806Z,19.20
2023-05-19T14:38:31.923Z,19.10
2023-05-19T14:41:17.906Z,19.10
2023-05-19T14:44:04.194Z,19.30
2023-05-19T14:46:50.738Z,19.20
2023-05-19T14:49:36.346Z,19.00
2023-05-19T14:52:22.827Z,18.80
2023-05-19T14:55:09.473Z,18.60
2023-05-19T14:57:55.291Z,18.70
2023-05-19T15:00:41.347Z,18.70
2023-05-19T15:03:27.524Z,18.70
2023-05-19T15:06:13.325Z,18.80
2023-05-19T15:08:59.128Z,18.70
2023-05-19T15:11:44.846Z,18.60
2023-05-19T15:14:31.352Z,18.50
2023-05-19T15:17:17.931Z,18.30
2023-05-19T15:20:03.785Z,18.30
2023-05-19T15:22:49.516Z,18.20
2023-05-19T15:25:35.778Z,18.30
2023-05-19T15:28:21.452Z,18.10
2023-05-19T15:31:07.705Z,18.30
2023-05-19T15:33:53.748Z,18.10
2023-05-19T15:36:39.382Z,18.10
2023-05-19T15:39:25.670Z,18.00
2023-05-19T15:42:11.359Z,18.10
2023-05-19T15:44:57.152Z,18.20
2023-05-19T15:47:42.722Z,18.00
2023-05-19T15:50:28.459Z,17.90
2023-05-19T15:53:14.233Z,18.00
2023-05-19T15:56:00.694Z,17.90
2023-05-19T15:58:48.035Z,17.90
2023-05-19T16:01:34.025Z,17.90
2023-05-19T16:04:19.892Z,17.90
2023-05-19T16:07:06.127Z,17.80
2023-05-19T16:09:52.129Z,17.80
2023-05-19T16:12:38.017Z,17.60
2023-05-19T16:15:23.702Z,17.50
2023-05-19T16:18:09.785Z,17.50
2023-05-19T16:20:56.506Z,17.60
2023-05-19T16:23:42.385Z,17.60
2023-05-19T16:26:28.985Z,17.50
2023-05-19T16:29:14.842Z,17.40
2023-05-19T16:32:01.034Z,17.40
2023-05-19T16:34:47.007Z,17.30
2023-05-19T16:37:32.631Z,17.30
2023-05-19T16:40:21.466Z,17.30
2023-05-19T16:43:10.750Z,17.30
2023-05-19T16:45:59.831Z,17.30
2023-05-19T16:48:49.007Z,17.30
2023-05-19T16:51:35.168Z,17.20
2023-05-19T16:54:21.588Z,17.20
2023-05-19T16:57:07.483Z,17.20
2023-05-19T16:59:53.502Z,17.20
2023-05-19T17:02:39.318Z,17.20
2023-05-19T17:05:28.171Z,17.10
2023-05-19T17:08:13.990Z,17.00
2023-05-19T17:11:00.107Z,16.90
2023-05-19T17:13:46.547Z,16.90
2023-05-19T17:16:32.552Z,16.90
2023-05-19T17:19:18.395Z,16.80
2023-05-19T17:22:04.573Z,16.70
2023-05-19T17:24:50.368Z,16.60
2023-05-19T17:27:36.392Z,16.50
2023-05-19T17:30:22.334Z,16.50
2023-05-19T17:33:07.982Z,16.50
2023-05-19T17:35:53.886Z,16.40
2023-05-19T17:38:40.426Z,16.40
2023-05-19T17:41:29.804Z,16.30
2023-05-19T17:44:18.590Z,16.30
2023-05-19T17:47:05.401Z,16.30
2023-05-19T17:49:53.016Z,16.20
2023-05-19T17:52:40.871Z,16.10
2023-05-19T17:55:31.392Z,16.10
2023-05-19T17:58:18.415Z,16.00
2023-05-19T18:01:05.412Z,15.90
2023-05-19T18:03:51.737Z,15.90
2023-05-19T18:06:38.686Z,15.80
2023-05-19T18:09:28.689Z,15.70
2023-05-19T18:12:14.752Z,15.70
2023-05-19T18:15:00.779Z,15.60
2023-05-19T18:17:46.587Z,15.60
2023-05-19T18:20:33.984Z,15.50
2023-05-19T18:23:20.535Z,15.40
2023-05-19T18:26:07.423Z,15.30
2023-05-19T18:28:53.122Z,15.20
2023-05-19T18:31:39.257Z,15.20
2023-05-19T18:34:24.853Z,15.10
2023-05-19T18:37:10.878Z,15.00
2023-05-19T18:39:56.753Z,14.90
2023-05-19T18:42:42.462Z,14.90
2023-05-19T18:45:28.152Z,14.80
2023-05-19T18:48:15.038Z,14.80
2023-05-19T18:51:01.291Z,14.70
2023-05-19T18:53:52.140Z,14.70
2023-05-19T18:56:37.861Z,14.70
2023-05-19T18:59:24.719Z,14.50
2023-05-19T19:02:10.559Z,14.50
2023-05-19T19:04:56.711Z,14.40
2023-05-19T19:07:43.372Z,14.40
2023-05-19T19:10:29.681Z,14.30
2023-05-19T19:13:15.547Z,14.30
2023-05-19T19:16:01.260Z,14.20
2023-05-19T19:18:47.217Z,14.20
2023-05-19T19:21:33.500Z,14.10
2023-05-19T19:24:19.151Z,14.10
2023-05-19T19:27:05.612Z,14.10
2023-05-19T19:29:51.819Z,14.10
2023-05-19T19:32:37.504Z,14.10
2023-05-19T19:35:23.649Z,14.00
2023-05-19T19:38:09.247Z,14.00
2023-05-19T19:40:54.974Z,14.00
2023-05-19T19:43:41.258Z,14.00
2023-05-19T19:46:27.013Z,13.90
2023-05-19T19:49:12.684Z,13.90
2023-05-19T19:51:59.569Z,13.90
2023-05-19T19:54:44.970Z,13.90
2023-05-19T19:57:34.039Z,13.90
2023-05-19T20:00:20.141Z,13.90
2023-05-19T20:03:06.332Z,13.80
2023-05-19T20:05:54.787Z,13.80
2023-05-19T20:08:40.488Z,13.70
2023-05-19T20:11:26.819Z,13.70
2023-05-19T20:14:12.589Z,13.70
2023-05-19T20:16:58.545Z,13.80
2023-05-19T20:19:46.893Z,13.70
2023-05-19T20:22:32.775Z,13.70
2023-05-19T20:25:18.734Z,13.60
2023-05-19T20:28:04.684Z,13.50
2023-05-19T20:30:51.098Z,13.40
2023-05-19T20:33:37.251Z,13.40
2023-05-19T20:36:23.140Z,13.30
2023-05-19T20:39:12.155Z,13.30
2023-05-19T20:41:58.207Z,13.30
2023-05-19T20:44:44.191Z,13.20
2023-05-19T20:47:30.645Z,13.00
2023-05-19T20:50:16.687Z,13.10
2023-05-19T20:53:02.744Z,13.10
2023-05-19T20:55:48.795Z,13.10
2023-05-19T20:58:34.527Z,13.10
2023-05-19T21:01:20.640Z,13.00
2023-05-19T21:04:07.886Z,13.00
2023-05-19T21:06:53.908Z,12.90
2023-05-19T21:09:40.179Z,12.80
2023-05-19T21:12:28.668Z,12.60
2023-05-19T21:15:14.822Z,12.80
2023-05-19T21:18:00.995Z,12.80
2023-05-19T21:20:46.823Z,12.90
2023-05-19T21:23:32.801Z,12.90
2023-05-19T21:26:18.733Z,12.90
2023-05-19T21:29:04.993Z,12.90
2023-05-19T21:31:52.576Z,12.90
2023-05-19T21:34:39.056Z,12.90
2023-05-19T21:37:24.665Z,13.00
2023-05-19T21:40:11.163Z,12.80
2023-05-19T21:42:57.165Z,12.80
2023-05-19T21:45:42.839Z,12.70
2023-05-19T21:48:28.686Z,12.70
2023-05-19T21:51:14.259Z,12.60
2023-05-19T21:54:00.158Z,12.60
2023-05-19T21:56:46.288Z,12.50
2023-05-19T21:59:32.115Z,12.50
2023-05-19T22:02:18.170Z,12.40
2023-05-19T22:05:04.175Z,12.30
2023-05-19T22:07:50.214Z,12.30
2023-05-19T22:10:37.353Z,12.30
2023-05-19T22:13:23.366Z,12.30
2023-05-19T22:16:09.673Z,12.30
2023-05-19T22:18:55.521Z,12.20
2023-05-19T22:21:41.412Z,12.20
2023-05-19T22:24:27.573Z,12.20
2023-05-19T22:27:13.313Z,12.20
2023-05-19T22:30:02.601Z,12.10
2023-05-19T22:32:48.381Z,12.20
2023-05-19T22:35:38.725Z,12.10
2023-05-19T22:38:25.408Z,12.00
2023-05-19T22:41:17.506Z,12.00
2023-05-19T22:44:07.067Z,12.00
2023-05-19T22:46:53.134Z,11.90
2023-05-19T22:49:51.255Z,11.90
2023-05-19T22:52:38.798Z,11.80
2023-05-19T22:55:24.644Z,11.80
2023-05-19T22:58:12.689Z,11.70
2023-05-19T23:00:58.601Z,11.60
2023-05-19T23:03:44.787Z,11.60
2023-05-19T23:06:31.493Z,11.50
2023-05-19T23:09:18.012Z,11.40
2023-05-19T23:12:03.934Z,11.40
2023-05-19T23:14:49.607Z,11.30
2023-05-19T23:17:36.163Z,11.30
2023-05-19T23:20:22.167Z,11.20
2023-05-19T23:23:07.768Z,11.20
2023-05-19T23:25:53.540Z,11.20
2023-05-19T23:28:42.041Z,11.30
2023-05-19T23:31:28.642Z,11.10
2023-05-19T23:34:14.613Z,11.10
2023-05-19T23:37:00.358Z,11.10
2023-05-19T23:39:47.298Z,11.00
2023-05-19T23:42:33.943Z,11.00
2023-05-19T23:45:19.889Z,11.00
2023-05-19T23:48:06.609Z,10.90
2023-05-19T23:50:52.654Z,10.90
2023-05-19T23:53:38.738Z,10.80
2023-05-19T23:56:24.862Z,10.80
2023-05-19T23:59:11.155Z,10.80
